Uno Mas — WDB8447 — position and weather

sailwx.info

Track history (hours):
 
Tides and Currents Weather Stations Pressure Air Temp Water Temp Dewpoint Dewpoint Depression Visibility Wind Speed Wind Dir Waves Ship Positions

Uno Mas

Owner: mccarty iii, george d, ingleside, TX. More information available from US FCC via Universal Licensing System and Coast Guard Vessel Documentation Center.

Last reported at 2017-Nov-20 00:30 UTC. Time now 2017-Nov-22 01:46 UTC.
Position N 29°36' W 090°40'.

Length 16 m.

Type: Towing. MMSI: 367087250.

Date/timePositionNaut miles runAvg speedWind from/ knotsBaromVisibWave heightAir tempDewpointWater temp
2017-Nov-20 00:30N 29°36' W 090°40'0 0.3
2017-Nov-19 23:47N 29°36' W 090°40'0 0.0
2017-Nov-19 23:29N 29°36' W 090°40'1 1.7
2017-Nov-19 23:00N 29°36' W 090°41'2 4.0
2017-Nov-19 22:30N 29°35' W 090°43'2 3.6
2017-Nov-19 22:00N 29°34' W 090°44'3 5.9
2017-Nov-19 21:30N 29°32' W 090°47'10 0.7
2017-Nov-19 07:46N 29°35' W 090°58'2 5.7
2017-Nov-19 07:28N 29°34' W 090°56'3 6.0
2017-Nov-19 06:57N 29°32' W 090°53'3 5.9
2017-Nov-19 06:30N 29°32' W 090°50'3 6.1
2017-Nov-19 06:00N 29°32' W 090°46'3 5.5
2017-Nov-19 05:30N 29°34' W 090°44'2 4.7
2017-Nov-19 05:00N 29°36' W 090°43'2 3.5
2017-Nov-19 04:30N 29°36' W 090°41'0 0.3
2017-Nov-19 04:00N 29°36' W 090°40'3 5.4
2017-Nov-19 03:30N 29°35' W 090°38'3 5.3
2017-Nov-19 03:00N 29°34' W 090°35'9 0.4
2017-Nov-18 06:55N 29°33' W 090°25'2 4.5
2017-Nov-18 06:29N 29°33' W 090°27'3 6.1
2017-Nov-18 06:00N 29°34' W 090°30'3 6.2
2017-Nov-18 05:30N 29°34' W 090°34'3 6.2
2017-Nov-18 05:00N 29°35' W 090°37'3 6.2
2017-Nov-18 04:30N 29°36' W 090°40'2 4.2
2017-Nov-18 04:00N 29°35' W 090°43'1 1.9
2017-Nov-18 03:30N 29°35' W 090°43'3 6.3
2017-Nov-18 03:00N 29°31' W 090°42'3 6.6
2017-Nov-18 02:30N 29°28' W 090°43'3 6.5
2017-Nov-18 02:00N 29°25' W 090°43'  
2017-Nov-14 02:51N 29°24' W 090°52'3 5.4
2017-Nov-14 02:20N 29°25' W 090°49'2 5.4
2017-Nov-14 01:58N 29°25' W 090°47'3 4.6
2017-Nov-14 01:24N 29°24' W 090°44'3 7.5
2017-Nov-14 01:00N 29°27' W 090°43'4 7.5
2017-Nov-14 00:30N 29°31' W 090°43'3 6.5
2017-Nov-14 00:00N 29°34' W 090°43'0 0.0
2017-Nov-13 23:30N 29°34' W 090°43'0 0.3
2017-Nov-13 23:00N 29°34' W 090°43'3 5.9
2017-Nov-13 22:30N 29°32' W 090°46'3 6.8
2017-Nov-13 22:00N 29°32' W 090°50'  
2017-Nov-10 20:42N 29°33' W 090°28'2 6.7
2017-Nov-10 20:24N 29°34' W 090°30'3 6.7
2017-Nov-10 19:59N 29°34' W 090°33'3 6.0
2017-Nov-10 19:30N 29°35' W 090°37'3 6.4
2017-Nov-10 19:00N 29°36' W 090°40'2 4.7
2017-Nov-10 18:30N 29°36' W 090°43'3 5.4
2017-Nov-10 18:00N 29°34' W 090°44'3 5.8
2017-Nov-10 17:28N 29°32' W 090°47'  
Track history (hours):
 
Tides and Currents Weather Stations Pressure Air Temp Water Temp Dewpoint Dewpoint Depression Visibility Wind Speed Wind Dir Waves Ship Positions

Uno Mas

Owner: mccarty iii, george d, ingleside, TX. More information available from US FCC via Universal Licensing System and Coast Guard Vessel Documentation Center.

Last reported at 2017-Nov-20 00:30 UTC. Time now 2017-Nov-22 01:46 UTC.
Position N 29°36' W 090°40'.

Length 16 m.

Type: Towing. MMSI: 367087250.

Date/timePositionNaut miles runAvg speedWind from/ knotsBaromVisibWave heightAir tempDewpointWater temp
2017-Nov-20 00:30N 29°36' W 090°40'0 0.3
2017-Nov-19 23:47N 29°36' W 090°40'0 0.0
2017-Nov-19 23:29N 29°36' W 090°40'1 1.7
2017-Nov-19 23:00N 29°36' W 090°41'2 4.0
2017-Nov-19 22:30N 29°35' W 090°43'2 3.6
2017-Nov-19 22:00N 29°34' W 090°44'3 5.9
2017-Nov-19 21:30N 29°32' W 090°47'10 0.7
2017-Nov-19 07:46N 29°35' W 090°58'2 5.7
2017-Nov-19 07:28N 29°34' W 090°56'3 6.0
2017-Nov-19 06:57N 29°32' W 090°53'3 5.9
2017-Nov-19 06:30N 29°32' W 090°50'3 6.1
2017-Nov-19 06:00N 29°32' W 090°46'3 5.5
2017-Nov-19 05:30N 29°34' W 090°44'2 4.7
2017-Nov-19 05:00N 29°36' W 090°43'2 3.5
2017-Nov-19 04:30N 29°36' W 090°41'0 0.3
2017-Nov-19 04:00N 29°36' W 090°40'3 5.4
2017-Nov-19 03:30N 29°35' W 090°38'3 5.3
2017-Nov-19 03:00N 29°34' W 090°35'9 0.4
2017-Nov-18 06:55N 29°33' W 090°25'2 4.5
2017-Nov-18 06:29N 29°33' W 090°27'3 6.1
2017-Nov-18 06:00N 29°34' W 090°30'3 6.2
2017-Nov-18 05:30N 29°34' W 090°34'3 6.2
2017-Nov-18 05:00N 29°35' W 090°37'3 6.2
2017-Nov-18 04:30N 29°36' W 090°40'2 4.2
2017-Nov-18 04:00N 29°35' W 090°43'1 1.9
2017-Nov-18 03:30N 29°35' W 090°43'3 6.3
2017-Nov-18 03:00N 29°31' W 090°42'3 6.6
2017-Nov-18 02:30N 29°28' W 090°43'3 6.5
2017-Nov-18 02:00N 29°25' W 090°43'  
2017-Nov-14 02:51N 29°24' W 090°52'3 5.4
2017-Nov-14 02:20N 29°25' W 090°49'2 5.4
2017-Nov-14 01:58N 29°25' W 090°47'3 4.6
2017-Nov-14 01:24N 29°24' W 090°44'3 7.5
2017-Nov-14 01:00N 29°27' W 090°43'4 7.5
2017-Nov-14 00:30N 29°31' W 090°43'3 6.5
2017-Nov-14 00:00N 29°34' W 090°43'0 0.0
2017-Nov-13 23:30N 29°34' W 090°43'0 0.3
2017-Nov-13 23:00N 29°34' W 090°43'3 5.9
2017-Nov-13 22:30N 29°32' W 090°46'3 6.8
2017-Nov-13 22:00N 29°32' W 090°50'  
2017-Nov-10 20:42N 29°33' W 090°28'2 6.7
2017-Nov-10 20:24N 29°34' W 090°30'3 6.7
2017-Nov-10 19:59N 29°34' W 090°33'3 6.0
2017-Nov-10 19:30N 29°35' W 090°37'3 6.4
2017-Nov-10 19:00N 29°36' W 090°40'2 4.7
2017-Nov-10 18:30N 29°36' W 090°43'3 5.4
2017-Nov-10 18:00N 29°34' W 090°44'3 5.8
2017-Nov-10 17:28N 29°32' W 090°47'  

Dump ship's entire track history